Weather observations for the past three days for
Midlothian/Waxahachie, Mid-Way Regional Airport
Imperial (Metric)
Date Time (cdt) Wind (mph) Vis. (mi.) Weather Sky Cond. Temperature (ºF) Relative Humidity Wind Chill (°F) Heat Index (°F) Pressure Precipitation (in)
Air Dwpt 6 hour altimeter (in) sea level (mb) 1 hr 3 hr 6 hr
Max. Min.
04 21:55 S 9 10.00 Partly Cloudy SCT210 SCT230 72.3 64.6 77% 29.74 0.0
04 21:35 S 9 10.00 A Few Clouds FEW230 72.5 64.6 76% 29.74 0.0
04 21:15 S 8 10.00 Fair CLR 73 64.4 74% 29.74 0.0
04 20:55 S 8 10.00 A Few Clouds FEW250 73.6 64.2 73% 29.73 0.0
04 20:35 S 10 10.00 A Few Clouds FEW230 73.9 64.2 72% 29.73 0.0
04 20:15 S 9 10.00 A Few Clouds FEW220 74.5 64 70% 29.73 0.0
04 19:55 S 10 10.00 Fair CLR 75.2 63.9 68% 77 29.73 0.0
04 19:35 S 14 G 20 10.00 Fair CLR 75.7 63.9 67% 78 29.74 0.0
04 19:15 S 16 G 24 9.00 Fair CLR 76.5 63.3 64% 78 29.75 0.0
04 18:55 S 20 G 29 10.00 Fair CLR 77 63.3 81.1 76.3 63% 79 29.75 0.0
04 18:35 S 18 G 25 10.00 Fair CLR 77.4 63.5 62% 79 29.75 0.0
04 18:15 S 17 G 24 10.00 Fair CLR 77.7 63.9 62% 79 29.75 0.0
04 17:55 S 20 G 29 10.00 A Few Clouds FEW040 78.3 63.3 60% 80 29.76 0.0
04 17:35 S 17 G 29 10.00 A Few Clouds FEW040 78.8 63.3 59% 80 29.76 0.0
04 17:15 S 20 G 28 10.00 A Few Clouds FEW040 78.1 63 60% 80 29.76 0.0
04 16:55 S 23 G 30 10.00 Fair and Breezy CLR 78.8 63.5 60% 80 29.77 0.0
04 16:35 S 16 G 24 10.00 Fair CLR 79.5 63.3 58% 81 29.78 0.0
04 16:15 S 21 G 29 10.00 Fair and Breezy CLR 80.2 63.1 56% 82 29.79 0.0
04 15:55 S 16 G 25 10.00 A Few Clouds FEW040 79.5 63.3 58% 81 29.8 0.0
04 15:35 S 17 10.00 A Few Clouds FEW041 79.7 63 57% 81 29.81 0.0
04 15:15 S 21 G 28 10.00 A Few Clouds and Breezy FEW041 79.2 63.1 58% 81 29.82 0.0
04 14:55 S 15 10.00 A Few Clouds FEW041 79 62.8 58% 80 29.84 0.0
04 14:35 S 17 G 25 10.00 A Few Clouds FEW360 79.5 62.8 57% 81 29.84 0.0
04 14:15 S 16 G 24 10.00 Fair CLR 78.6 62.1 57% 80 29.85 0.0
04 13:55 S 17 G 24 10.00 A Few Clouds FEW360 78.6 61.2 55% 80 29.86 0.0
04 13:35 S 16 G 25 10.00 A Few Clouds FEW350 77.2 60.8 57% 79 29.86 0.0
04 13:15 S 16 G 28 10.00 A Few Clouds FEW340 77.4 60.6 56% 79 29.88 0.0
04 12:55 S 15 G 24 10.00 Fair CLR 76.3 59.5 77 59.2 56% 78 29.88 0.0
04 12:35 S 18 10.00 Fair CLR 75.9 58.8 56% 78 29.89 0.0
04 12:15 S 21 10.00 Fair and Breezy CLR 75.2 58.6 57% 78 29.9 0.0
04 11:55 S 16 G 25 10.00 Fair CLR 75 58.8 57% 77 29.92 0.0
04 11:35 S 20 G 23 10.00 Fair CLR 74.8 57.2 54% 29.92 0.0
04 11:15 S 16 G 23 10.00 Fair CLR 73.4 57.9 59% 29.93 0.0
04 10:55 S 17 10.00 Fair CLR 72 58.1 62% 29.93 0.0
04 10:35 S 15 G 22 10.00 Fair CLR 71.1 57.7 63% 29.94 0.0
04 10:15 S 20 G 25 10.00 Fair CLR 70 57.9 66% 29.94 0.0
04 09:55 S 16 G 29 10.00 Fair CLR 69.4 57.9 67% 29.95 0.0
04 09:35 S 18 G 23 10.00 Fair CLR 68.4 57.4 68% 29.95 0.0
04 09:15 S 18 10.00 Fair CLR 67.1 57 70% 29.95 0.0
04 08:55 S 17 G 24 10.00 Fair CLR 65.5 55.9 71% 29.96 0.0
04 08:35 S 17 10.00 Fair CLR 64.8 55.8 73% 29.95 0.0
04 08:15 S 12 10.00 Fair CLR 63.3 55.8 77% 29.96 0.0
04 07:55 S 9 10.00 Fair CLR 60.4 55 82% 29.95 0.0
04 07:35 S 10 10.00 Fair CLR 60.3 54.7 82% 29.95 0.0
04 07:15 S 10 10.00 Fair CLR 59.4 54.5 84% 29.94 0.0
04 06:55 S 13 10.00 Fair CLR 58.8 54.3 60.4 57.6 85% 29.93 0.0
04 06:35 S 12 10.00 Fair CLR 58.8 54.3 85% 29.93 0.0
04 06:15 S 15 10.00 Fair CLR 58.3 54.3 87% 29.93 0.0
04 05:55 S 10 10.00 Fair CLR 57.9 54 87% 29.94 0.0
04 05:35 S 8 10.00 Fair CLR 57.7 53.8 87% 29.94 0.0
04 05:15 S 7 10.00 Fair CLR 57.9 53.6 86% 29.95 0.0
04 04:55 S 7 10.00 Fair CLR 58.3 53.4 84% 29.95 0.0
04 04:35 S 8 10.00 Fair CLR 59.2 53.4 81% 29.95 0.0
04 04:15 S 8 10.00 Fair CLR 59.7 53.2 79% 29.95 0.0
04 03:55 S 9 10.00 Fair CLR 59.2 53.2 81% 29.96 0.0
04 03:35 S 9 10.00 Fair CLR 59.7 53.1 79% 29.96 0.0
04 03:15 S 12 10.00 Fair CLR 59.9 52.7 77% 29.96 0.0
04 02:55 S 9 10.00 Fair CLR 59.7 52.5 77% 29.97 0.0
04 02:35 S 10 10.00 Fair CLR 60.3 52 74% 29.97 0.0
04 02:15 S 12 10.00 Fair CLR 60.1 51.6 74% 29.98 0.0
04 01:55 S 9 10.00 Fair CLR 60.4 51.6 73% 29.98 0.0
04 01:35 S 8 10.00 Fair CLR 59.7 52 76% 29.99 0.0
04 01:15 S 7 10.00 Fair CLR 59.5 52.3 77% 30 0.0
04 00:55 S 6 10.00 Fair CLR 59.9 52.3 75.6 59.9 76% 30.01 0.0
04 00:35 S 6 10.00 Fair CLR 60.1 52.3 76% 30.01 0.0
04 00:15 S 6 10.00 Fair CLR 61.2 52.3 73% 30.01 0.0
03 23:55 S 6 10.00 Fair CLR 62.1 52 70% 30.02 0.0
03 23:35 S 8 10.00 Fair CLR 62.6 52 68% 30.02 0.0
03 23:15 S 8 9.00 Fair CLR 62.4 51.8 68% 30.02 0.0
03 22:55 S 6 10.00 Fair CLR 62.4 51.6 68% 30.02 0.0
03 22:35 S 6 10.00 Fair CLR 62.8 51.3 66% 30.02 0.0
03 22:15 S 5 10.00 Fair CLR 63 51.1 65% 30.02 0.0
03 21:55 S 6 10.00 Fair CLR 64.8 50.7 61% 30.02 0.0
03 21:35 S 6 10.00 Fair CLR 65.3 50.5 59% 30.02 0.0
03 21:15 S 6 10.00 Fair CLR 65.8 50.7 58% 30.02 0.0
03 20:55 S 6 10.00 Fair CLR 67.1 50.2 55% 30.01 0.0
03 20:35 S 7 10.00 Fair CLR 68.5 49.8 51% 30.01 0.0
03 20:15 S 6 10.00 Fair CLR 69.1 50 51% 30.01 0.0
03 19:55 S 9 10.00 Fair CLR 72.1 48.2 43% 30.01 0.0
03 19:35 S 9 10.00 Fair CLR 73.4 48 41% 30.01 0.0
03 19:15 S 12 10.00 Fair CLR 74.5 47.3 38% 30.01 0.0
03 18:55 S 10 10.00 Fair CLR 76.3 48 80.6 76.3 37% 78 30.01 0.0
03 18:35 S 13 G 22 10.00 Fair CLR 77 47.7 36% 78 30.02 0.0
03 18:15 S 12 10.00 NULL NULL 77.9 46.9 34% 78 30.02 0.0
03 17:55 SW 14 G 21 10.00 NULL NULL 78.8 45 30% 79 30.02 0.0
03 17:35 S 14 10.00 Fair CLR 78.4 45.1 31% 78 30.03 0.0
03 17:15 S 13 10.00 Fair CLR 79.2 45.3 30% 79 30.03 0.0
03 16:55 S 12 10.00 Fair CLR 80.1 48.2 33% 79 30.04 0.0
03 16:35 S 14 10.00 Fair CLR 80.2 48 32% 79 30.04 0.0
03 16:15 SW 12 G 20 10.00 Fair CLR 80.2 46.2 30% 79 30.06 0.0
03 15:55 S 13 10.00 A Few Clouds FEW080 80.1 48.6 33% 79 30.07 0.0
03 15:35 SW 15 G 20 10.00 Fair CLR 79.9 48.7 34% 79 30.08 0.0
03 15:15 S 14 10.00 Fair CLR 79.3 45 30% 79 30.09 0.0
03 14:55 SW 8 10.00 Fair CLR 79.5 47.5 32% 79 30.1 0.0
03 14:35 SW 14 10.00 Fair CLR 78.8 48.7 35% 79 30.1 0.0
03 13:55 SW 13 G 22 10.00 A Few Clouds FEW360 78.6 49.3 36% 79 30.13 0.0
03 13:35 SW 13 10.00 A Few Clouds FEW360 78.8 48.6 35% 79 30.13 0.0
03 13:15 SW 12 10.00 Fair CLR 78.4 46.9 33% 79 30.14 0.0
03 12:55 SW 12 10.00 A Few Clouds FEW330 77.7 49.5 78.1 55 37% 78 30.15 0.0
03 12:35 SW 14 10.00 Fair CLR 77.7 51.1 39% 79 30.16 0.0
03 12:15 SW 10 10.00 Fair CLR 76.1 50.2 40% 78 30.17 0.0
03 11:55 W 10 10.00 Fair CLR 75.7 51.4 43% 78 30.18 0.0
03 11:35 SW 10 10.00 Fair CLR 74.8 51.3 44% 30.18 0.0
03 11:15 SW 10 10.00 Fair CLR 73.8 50.7 44% 30.19 0.0
03 10:55 SW 12 10.00 Fair CLR 73.4 52 47% 30.19 0.0
03 10:15 SW 14 10.00 Fair CLR 70.7 51.1 50% 30.19 0.0
03 09:55 SW 13 10.00 Fair CLR 69.6 50.7 51% 30.18 0.0
03 09:35 SW 8 10.00 Fair CLR 69.3 50.7 52% 30.18 0.0
03 09:15 SW 14 7.00 Fair CLR 67.8 49.6 52% 30.18 0.0
03 08:55 SW 8 5.00 Fair with Haze CLR 66 50.9 58% 30.18 0.0
03 07:55 SW 5 8.00 Fair CLR 60.3 50.5 70% 30.17 0.0
03 07:35 SW 5 9.00 Fair CLR 59 49.8 72% 30.17 0.0
03 07:15 W 5 9.00 Fair CLR 56.8 49.3 76% 30.16 0.0
03 06:55 W 3 10.00 Fair CLR 54.5 48.9 58.5 52.9 82% 30.15 0.0
03 06:35 Calm 9.00 Fair CLR 53.2 48.9 85% 30.15 0.0
03 06:15 Calm 10.00 NULL NULL 54.7 49.1 82% 30.14 0.0
03 05:55 S 3 9.00 NULL NULL 55.4 48.7 78% 30.14 0.0
03 05:35 SW 5 8.00 Fair CLR 56.5 48.4 74% 30.14 0.0
03 05:15 SW 3 10.00 Fair CLR 56.5 48.4 74% 30.14 0.0
03 04:55 Calm 10.00 Fair CLR 55.4 48.6 78% 30.14 0.0
03 04:35 Calm 10.00 Fair CLR 55.4 48.6 78% 30.14 0.0
03 04:15 Calm 10.00 Fair CLR 57 47.8 72% 30.13 0.0
03 03:55 SW 5 10.00 Fair CLR 56.7 48 73% 30.13 0.0
03 03:35 SW 5 10.00 Fair CLR 56.3 47.8 73% 30.13 0.0
03 03:15 SW 5 10.00 Fair CLR 56.1 47.3 72% 30.13 0.0
03 02:55 Calm 10.00 Fair CLR 56.8 46.2 68% 30.13 0.0
03 02:35 SW 3 10.00 Fair CLR 56.7 46.2 68% 30.14 0.0
03 02:15 Calm 10.00 Fair CLR 55.4 47.5 75% 30.14 0.0
03 01:55 S 5 10.00 Fair CLR 57.9 46.2 65% 30.14 0.0
03 01:35 S 3 10.00 Fair CLR 57.6 46.8 67% 30.14 0.0
03 01:15 S 5 10.00 Fair CLR 57.4 47.3 69% 30.14 0.0
03 00:55 S 5 10.00 Fair CLR 56.3 48.4 73.8 55.9 75% 30.14 0.0
03 00:35 S 3 10.00 Fair CLR 57 48.2 73% 30.14 0.0
03 00:15 S 5 10.00 Fair CLR 57.6 48.7 73% 30.14 0.0
02 23:55 S 5 10.00 NULL NULL 58.3 48.2 69% 30.13 0.0
02 23:35 S 5 10.00 NULL NULL 60.3 48 64% 30.13 0.0
02 23:15 S 5 10.00 Fair CLR 60.6 48.2 64% 30.14 0.0
02 22:35 S 5 9.00 Fair CLR 59.4 50.4 72% 30.14 0.0
02 22:15 S 3 9.00 Fair CLR 60.6 50 68% 30.13 0.0
02 21:55 SE 5 9.00 Fair CLR 61.7 48.7 63% 30.13 0.0
02 21:35 Calm 10.00 Fair CLR 59.9 50 70% 30.12 0.0
02 21:15 S 3 9.00 Fair CLR 61.7 48.2 61% 30.12 0.0
02 20:55 Calm 8.00 Fair CLR 61.5 49.1 64% 30.11 0.0
02 20:35 Calm 8.00 Fair CLR 63 48.2 59% 30.11 0.0
02 20:15 Calm 7.00 Fair CLR 64.6 47.5 54% 30.1 0.0
02 19:55 SW 3 7.00 Fair CLR 69.8 47.1 45% 30.1 0.0
02 19:35 SW 3 9.00 Fair CLR 72.1 45.5 39% 30.1 0.0
02 19:15 Vrbl 3 9.00 Fair CLR 72.3 45.9 39% 30.1 0.0
02 18:55 N 3 9.00 Fair CLR 73.9 39.6 75.2 70.9 29% 30.1 0.0
02 18:35 NW 5 9.00 Fair CLR 74.1 40.6 30% 30.1 0.0
02 18:15 W 5 9.00 Fair CLR 74.7 40.3 29% 30.1 0.0
02 17:55 Calm 9.00 NULL NULL 73.9 40.8 30% 30.1 0.0
02 17:15 N 6 9.00 Fair CLR 74.3 41.7 31% 30.11 0.0
02 16:55 Calm 9.00 Fair CLR 74.5 40.8 30% 30.11 0.0
02 16:35 Calm 9.00 NULL NULL 74.5 41.4 30% 30.11 0.0
02 16:15 NW 8 9.00 NULL NULL 75 41.9 31% 77 30.13 0.0
02 15:55 N 9 10.00 NULL NULL 74.7 41.4 30% 30.13 0.0
02 15:35 NE 5 9.00 NULL NULL 73.8 41.4 31% 30.14 0.0
02 15:15 Vrbl 3 9.00 NULL NULL 73.4 40.6 31% 30.14 0.0
02 14:55 N 9 9.00 NULL NULL 73.2 43.9 35% 30.14 0.0
02 14:35 Calm 9.00 NULL NULL 73 42.3 33% 30.15 0.0
02 14:15 N 6 9.00 A Few Clouds FEW380 72.9 45.3 37% 30.15 0.0
02 13:55 N 5 10.00 Fair CLR 72.9 42.4 34% 30.16 0.0
02 13:35 Vrbl 7 9.00 Fair CLR 71.8 43 36% 30.17 0.0
02 13:15 Calm 10.00 A Few Clouds FEW370 70.9 42.4 36% 30.17 0.0
02 12:55 N 8 10.00 NULL NULL 71.8 43.5 71.8 49.6 36% 30.19 0.0
02 12:35 NW 7 10.00 NULL NULL 70.9 43.7 38% 30.19 0.0
02 12:15 Calm 9.00 NULL NULL 69.4 43.5 39% 30.2 0.0
02 11:55 NW 3 10.00 Fair CLR 69.1 44.2 41% 30.2 0.0
02 11:35 Calm 9.00 Fair CLR 68 46 45% 30.2 0.0
02 11:15 Vrbl 5 10.00 Fair CLR 67.3 44.2 44% 30.2 0.0
02 10:55 Vrbl 5 10.00 Fair CLR 66.7 46.8 49% 30.2 0.0
02 10:35 NW 8 10.00 Fair CLR 66.2 48.9 54% 30.2 0.0
02 10:15 NW 7 10.00 Fair CLR 64.6 49.8 59% 30.2 0.0
02 09:55 NW 8 10.00 NULL NULL 62.8 50.7 65% 30.19 0.0
02 09:35 NW 9 10.00 NULL NULL 61.9 51.4 69% 30.19 0.0
02 09:15 NW 9 10.00 NULL NULL 60.4 51.6 73% 30.18 0.0
02 08:55 NW 8 10.00 Fair CLR 58.5 52.5 81% 30.18 0.0
02 08:35 NW 7 10.00 Fair CLR 56.8 51.8 83% 30.17 0.0
02 08:15 NW 6 10.00 Fair CLR 55 50.5 85% 30.17 0.0
02 07:55 W 7 10.00 A Few Clouds FEW140 52.5 49.6 90% 30.16 0.0
02 07:35 W 6 9.00 Partly Cloudy SCT150 51.6 49.3 92% 30.16 0.0
02 07:15 NW 6 9.00 A Few Clouds FEW150 49.6 47.8 94% 48 30.15 0.0
02 06:55 NW 6 8.00 Fair CLR 49.8 47.8 51.6 47.7 93% 48 30.14 0.0
02 06:35 W 7 8.00 Fair CLR 49.8 47.7 92% 47 30.12 0.0
02 06:15 NW 6 9.00 Fair CLR 48.7 47.5 95% 47 30.11 0.0
02 05:55 NW 7 9.00 Fair CLR 48.6 47.3 95% 46 30.11 0.0
02 05:35 NW 6 10.00 Fair CLR 49.1 47.7 95% 47 30.11 0.0
02 05:15 NW 5 10.00 Fair CLR 48.4 47.7 97% 47 30.11 0.0
02 04:55 W 5 9.00 Fair CLR 47.7 47.1 98% 46 30.1 0.0
02 04:35 W 3 10.00 Fair CLR 48.6 47.3 95% 30.1 0.0
02 04:15 NW 5 10.00 Fair CLR 48.9 47.8 96% 48 30.09 0.0
02 03:55 NW 5 10.00 Fair CLR 49.5 48.4 96% 48 30.09 0.0
02 03:35 NW 5 10.00 Fair CLR 48.6 47.7 97% 47 30.1 0.0
02 03:15 NW 3 10.00 Fair CLR 49.1 48.4 97% 30.09 0.0
02 02:55 NW 3 10.00 Fair CLR 49.8 48.9 97% 30.1 0.0
02 02:35 Calm 9.00 Fair CLR 49.6 49.1 98% 30.1 0.0
02 02:15 Calm 9.00 Partly Cloudy SCT160 49.8 49.1 97% 30.1 0.0
02 01:55 Calm 9.00 A Few Clouds FEW150 50.7 49.5 95% 30.09 0.0
02 01:35 Calm 9.00 Fair CLR 50.9 49.6 95% 30.11 0.0
02 01:15 Calm 10.00 Fair CLR 51.3 50.2 96% 30.11 0.0
02 00:55 NW 3 9.00 Partly Cloudy SCT160 51.6 51.1 58.6 51.3 98% 30.11 0.0
02 00:35 Calm 10.00 Fair CLR 51.6 51.1 98% 30.1 0.0
02 00:15 NW 3 10.00 Mostly Cloudy BKN160 51.4 50.9 98% 30.1 0.0
01 23:55 Calm 10.00 Partly Cloudy SCT160 51.8 51.1 97% 30.1 0.0
01 23:35 Calm 10.00 A Few Clouds FEW055 52.5 50.9 94% 30.1 0.0
01 23:15 Calm 9.00 A Few Clouds FEW055 53.1 51.6 95% 30.1 0.0
01 22:55 Calm 10.00 A Few Clouds FEW060 53.1 51.4 94% 30.09 0.0
01 22:35 Calm 10.00 Fair CLR 53.4 51.8 94% 30.09 0.0
01 22:15 Calm 10.00 Partly Cloudy SCT120 55 51.8 89% 30.09 0.0
Date Time (cdt) Wind (mph) Vis. (mi.) Weather Sky Cond. Air Dwpt Max. Min. Relative Humidity Wind Chill (°F) Heat Index (°F) altimeter (in) sea level (mb) 1 hr 3 hr 6 hr
6 hour
Temperature (ºF) Pressure Precipitation (in)